sensor_id;sensor_type;location;lat;lon;timestamp;temperature;humidity
949;DHT22;461;51.436;7.312;2023-07-31T00:02:05;17.30;99.90
949;DHT22;461;51.436;7.312;2023-07-31T00:04:31;17.30;99.90
949;DHT22;461;51.436;7.312;2023-07-31T00:06:57;17.30;99.90
949;DHT22;461;51.436;7.312;2023-07-31T00:09:22;17.30;99.90
949;DHT22;461;51.436;7.312;2023-07-31T00:11:48;17.20;99.90
949;DHT22;461;51.436;7.312;2023-07-31T00:14:14;17.20;99.90
949;DHT22;461;51.436;7.312;2023-07-31T00:16:40;17.20;99.90
949;DHT22;461;51.436;7.312;2023-07-31T00:19:05;17.20;99.90
949;DHT22;461;51.436;7.312;2023-07-31T00:21:31;17.20;99.90
949;DHT22;461;51.436;7.312;2023-07-31T00:23:57;17.20;99.90
949;DHT22;461;51.436;7.312;2023-07-31T00:26:23;17.30;99.90
949;DHT22;461;51.436;7.312;2023-07-31T00:29:01;17.30;99.90
949;DHT22;461;51.436;7.312;2023-07-31T00:31:26;17.20;99.90
949;DHT22;461;51.436;7.312;2023-07-31T00:33:52;17.30;99.90
949;DHT22;461;51.436;7.312;2023-07-31T00:36:18;17.30;99.90
949;DHT22;461;51.436;7.312;2023-07-31T00:38:44;17.40;99.90
949;DHT22;461;51.436;7.312;2023-07-31T00:41:10;17.30;99.90
949;DHT22;461;51.436;7.312;2023-07-31T00:43:35;17.20;99.90
949;DHT22;461;51.436;7.312;2023-07-31T00:46:01;17.20;99.90
949;DHT22;461;51.436;7.312;2023-07-31T00:48:27;17.10;99.90
949;DHT22;461;51.436;7.312;2023-07-31T00:50:53;17.10;99.90
949;DHT22;461;51.436;7.312;2023-07-31T00:53:19;17.20;99.90
949;DHT22;461;51.436;7.312;2023-07-31T00:55:45;17.20;99.90
949;DHT22;461;51.436;7.312;2023-07-31T00:58:11;17.20;99.90
949;DHT22;461;51.436;7.312;2023-07-31T01:00:37;17.20;99.90
949;DHT22;461;51.436;7.312;2023-07-31T01:03:03;17.20;99.90
949;DHT22;461;51.436;7.312;2023-07-31T01:05:48;17.10;99.90
949;DHT22;461;51.436;7.312;2023-07-31T01:08:36;17.20;99.90
949;DHT22;461;51.436;7.312;2023-07-31T01:11:25;17.30;99.90
949;DHT22;461;51.436;7.312;2023-07-31T01:13:54;17.30;99.90
949;DHT22;461;51.436;7.312;2023-07-31T01:16:20;17.40;99.90
949;DHT22;461;51.436;7.312;2023-07-31T01:18:46;17.40;99.90
949;DHT22;461;51.436;7.312;2023-07-31T01:21:47;17.50;99.90
949;DHT22;461;51.436;7.312;2023-07-31T01:27:12;17.60;99.90
949;DHT22;461;51.436;7.312;2023-07-31T01:30:08;17.60;99.90
949;DHT22;461;51.436;7.312;2023-07-31T01:32:40;17.60;99.90
949;DHT22;461;51.436;7.312;2023-07-31T01:35:07;17.50;99.90
949;DHT22;461;51.436;7.312;2023-07-31T01:37:34;17.50;99.90
949;DHT22;461;51.436;7.312;2023-07-31T01:50:06;17.60;99.90
949;DHT22;461;51.436;7.312;2023-07-31T01:52:32;17.60;99.90
949;DHT22;461;51.436;7.312;2023-07-31T04:08:26;18.30;99.90
949;DHT22;461;51.436;7.312;2023-07-31T04:10:56;18.30;99.90
949;DHT22;461;51.436;7.312;2023-07-31T04:13:26;18.30;99.90
949;DHT22;461;51.436;7.312;2023-07-31T04:15:56;18.20;99.90
949;DHT22;461;51.436;7.312;2023-07-31T04:18:25;18.20;99.90
949;DHT22;461;51.436;7.312;2023-07-31T04:20:53;18.30;99.90
949;DHT22;461;51.436;7.312;2023-07-31T04:23:21;18.30;99.90
949;DHT22;461;51.436;7.312;2023-07-31T04:25:47;18.30;99.90
949;DHT22;461;51.436;7.312;2023-07-31T04:28:15;18.20;99.90
949;DHT22;461;51.436;7.312;2023-07-31T04:30:43;18.40;99.90
949;DHT22;461;51.436;7.312;2023-07-31T04:33:13;18.50;99.90
949;DHT22;461;51.436;7.312;2023-07-31T04:35:39;18.50;99.90
949;DHT22;461;51.436;7.312;2023-07-31T04:38:08;18.50;99.90
949;DHT22;461;51.436;7.312;2023-07-31T04:40:36;18.50;99.90
949;DHT22;461;51.436;7.312;2023-07-31T04:43:03;18.50;99.90
949;DHT22;461;51.436;7.312;2023-07-31T04:45:34;18.50;99.90
949;DHT22;461;51.436;7.312;2023-07-31T04:48:08;18.50;99.90
949;DHT22;461;51.436;7.312;2023-07-31T04:50:36;18.50;99.90
949;DHT22;461;51.436;7.312;2023-07-31T04:53:07;18.60;99.90
949;DHT22;461;51.436;7.312;2023-07-31T04:55:36;18.70;99.90
949;DHT22;461;51.436;7.312;2023-07-31T04:58:06;18.70;99.90
949;DHT22;461;51.436;7.312;2023-07-31T05:00:36;18.70;99.90
949;DHT22;461;51.436;7.312;2023-07-31T05:03:03;18.60;99.90
949;DHT22;461;51.436;7.312;2023-07-31T05:05:30;18.60;99.90
949;DHT22;461;51.436;7.312;2023-07-31T05:08:07;18.70;99.90
949;DHT22;461;51.436;7.312;2023-07-31T05:10:35;18.70;99.90
949;DHT22;461;51.436;7.312;2023-07-31T05:13:02;18.80;99.90
949;DHT22;461;51.436;7.312;2023-07-31T05:15:39;18.80;99.90
949;DHT22;461;51.436;7.312;2023-07-31T05:18:07;18.90;99.90
949;DHT22;461;51.436;7.312;2023-07-31T05:20:34;18.90;99.90
949;DHT22;461;51.436;7.312;2023-07-31T05:23:00;18.80;99.90
949;DHT22;461;51.436;7.312;2023-07-31T05:25:28;18.80;99.90
949;DHT22;461;51.436;7.312;2023-07-31T05:27:59;18.80;99.90
949;DHT22;461;51.436;7.312;2023-07-31T05:30:31;18.90;99.90
949;DHT22;461;51.436;7.312;2023-07-31T05:32:58;18.90;99.90
949;DHT22;461;51.436;7.312;2023-07-31T05:35:26;19.00;99.90
949;DHT22;461;51.436;7.312;2023-07-31T05:37:55;19.10;99.90
949;DHT22;461;51.436;7.312;2023-07-31T05:40:22;19.10;99.90
949;DHT22;461;51.436;7.312;2023-07-31T05:42:52;19.10;99.90
949;DHT22;461;51.436;7.312;2023-07-31T05:45:19;19.10;99.90
949;DHT22;461;51.436;7.312;2023-07-31T05:47:47;19.00;99.90
949;DHT22;461;51.436;7.312;2023-07-31T05:52:41;19.10;99.90
949;DHT22;461;51.436;7.312;2023-07-31T05:55:09;18.90;99.90
949;DHT22;461;51.436;7.312;2023-07-31T05:57:38;19.00;99.90
949;DHT22;461;51.436;7.312;2023-07-31T06:00:06;19.10;99.90
